Time;durP1;ratioP1;P1;durP2;ratioP2;P2;SDS_P1;SDS_P2;PMS_P1;PMS_P2;Temp;Humidity;BMP_temperature;BMP_pressure;BME280_temperature;BME280_humidity;BME280_pressure;Samples;Min_cycle;Max_cycle;Signal;HPM_P1;HPM_P2
2021/04/24 00:02:07;;;;;;;5.50;4.00;;;;;;;13.81;55.64;101163.06;4996259;28;20081;-64
2021/04/24 00:04:33;;;;;;;5.07;4.57;;;;;;;13.76;55.79;101159.81;4997485;28;20035;-62
2021/04/24 00:07:00;;;;;;;7.70;4.47;;;;;;;13.73;55.45;101159.13;4997860;28;20122;-64
2021/04/24 00:09:26;;;;;;;5.57;4.72;;;;;;;13.81;55.76;101156.97;4999228;28;20064;-63
2021/04/24 00:11:52;;;;;;;4.20;3.67;;;;;;;13.82;55.35;101158.69;4999891;28;20458;-63
2021/04/24 00:14:19;;;;;;;4.93;3.90;;;;;;;13.78;55.25;101159.75;5000026;28;20442;-63
2021/04/24 00:16:45;;;;;;;5.75;4.25;;;;;;;13.69;55.29;101154.94;4998924;28;20404;-64
2021/04/24 00:19:12;;;;;;;7.65;4.72;;;;;;;13.71;55.82;101155.72;4998505;28;20049;-64
2021/04/24 00:21:38;;;;;;;4.63;3.83;;;;;;;13.58;56.24;101151.09;4996897;28;20448;-64
2021/04/24 00:24:05;;;;;;;4.28;3.80;;;;;;;13.51;55.87;101147.06;4998270;28;20046;-64
2021/04/24 00:26:31;;;;;;;4.85;4.43;;;;;;;13.57;55.74;101144.13;4984478;28;20035;-65
2021/04/24 00:28:58;;;;;;;9.20;5.13;;;;;;;13.56;55.45;101142.44;4982364;28;20046;-64
2021/04/24 00:31:24;;;;;;;5.22;3.92;;;;;;;13.59;55.50;101139.69;4997669;28;20046;-64
2021/04/24 00:33:51;;;;;;;4.18;3.78;;;;;;;13.57;55.94;101138.91;4994958;28;20560;-65
2021/04/24 00:36:18;;;;;;;5.63;5.05;;;;;;;13.42;56.33;101134.38;4998177;28;20066;-64
2021/04/24 00:38:44;;;;;;;6.13;5.05;;;;;;;13.51;55.62;101133.94;4996948;28;20405;-65
2021/04/24 00:41:11;;;;;;;6.00;4.70;;;;;;;13.48;55.86;101133.28;4997890;28;20049;-64
2021/04/24 00:43:38;;;;;;;5.45;4.95;;;;;;;13.45;56.05;101134.25;4996651;28;20054;-64
2021/04/24 00:46:12;;;;;;;7.20;4.72;;;;;;;13.49;54.90;101133.19;4998117;28;20097;-64
2021/04/24 00:48:39;;;;;;;5.63;4.85;;;;;;;13.53;55.36;101131.25;4997015;28;20092;-61
2021/04/24 00:51:07;;;;;;;7.10;5.60;;;;;;;13.37;55.61;101125.94;4997659;28;20065;-61
2021/04/24 00:53:33;;;;;;;5.95;5.35;;;;;;;13.53;55.35;101132.13;4996450;28;20449;-62
2021/04/24 00:56:00;;;;;;;5.47;4.88;;;;;;;13.46;55.76;101128.09;4996942;28;20046;-62
2021/04/24 00:58:27;;;;;;;10.40;4.93;;;;;;;13.45;55.81;101133.41;4996693;28;20042;-63
2021/04/24 01:00:54;;;;;;;5.72;4.90;;;;;;;13.35;55.98;101123.38;4995496;28;20118;-62
2021/04/24 01:03:21;;;;;;;8.52;4.70;;;;;;;13.19;56.53;101127.59;4998086;28;20100;-62
2021/04/24 01:05:50;;;;;;;4.78;4.35;;;;;;;13.19;56.71;101124.13;4997097;28;20034;-64
2021/04/24 01:08:16;;;;;;;4.60;4.20;;;;;;;13.18;56.46;101130.28;4997874;28;20045;-64
2021/04/24 01:10:44;;;;;;;7.70;4.75;;;;;;;13.15;56.68;101119.94;4995387;28;20132;-64
2021/04/24 01:13:13;;;;;;;8.00;5.03;;;;;;;13.07;57.43;101118.56;4984676;28;20069;-64
2021/04/24 01:15:40;;;;;;;5.07;4.55;;;;;;;13.19;56.38;101111.88;4993967;28;20074;-63
2021/04/24 01:18:08;;;;;;;5.97;4.97;;;;;;;13.06;56.44;101127.31;4994182;28;20150;-64
2021/04/24 01:20:35;;;;;;;5.18;4.20;;;;;;;13.16;56.56;101119.91;4994816;28;20074;-64
2021/04/24 01:23:04;;;;;;;8.98;5.00;;;;;;;13.21;56.30;101122.28;4995146;28;20065;-65
2021/04/24 01:25:30;;;;;;;4.88;4.40;;;;;;;13.15;56.66;101119.94;4995994;28;20065;-64
2021/04/24 01:27:59;;;;;;;7.07;4.75;;;;;;;12.97;57.02;101127.75;4994473;28;20062;-64
2021/04/24 01:30:34;;;;;;;5.38;4.30;;;;;;;13.21;55.84;101131.03;4975043;28;20046;-64
2021/04/24 01:33:02;;;;;;;6.35;4.50;;;;;;;13.09;56.49;101132.41;4974376;28;20512;-64
2021/04/24 01:35:31;;;;;;;5.03;4.57;;;;;;;12.98;56.96;101129.44;4975245;28;20074;-64
2021/04/24 01:37:59;;;;;;;6.38;4.88;;;;;;;13.04;56.51;101125.69;4984783;28;20048;-64
2021/04/24 01:40:26;;;;;;;6.10;4.60;;;;;;;12.93;56.56;101131.41;4994218;28;20130;-64
2021/04/24 01:42:52;;;;;;;4.38;3.97;;;;;;;12.80;57.27;101132.91;4992797;28;20129;-64
2021/04/24 01:45:22;;;;;;;6.03;5.40;;;;;;;12.79;57.47;101123.38;4994851;28;20042;-63
2021/04/24 01:47:50;;;;;;;5.88;4.88;;;;;;;12.82;57.79;101129.28;4985294;28;20074;-64
2021/04/24 01:50:31;;;;;;;6.45;4.65;;;;;;;12.91;57.23;101129.81;4975383;28;20078;-64
2021/04/24 01:53:00;;;;;;;6.45;5.38;;;;;;;12.99;56.95;101127.66;4983016;28;20054;-64
2021/04/24 01:55:32;;;;;;;7.18;5.00;;;;;;;12.86;57.06;101124.78;4994758;28;20448;-64
2021/04/24 01:58:03;;;;;;;4.97;4.18;;;;;;;12.74;57.42;101125.34;4984871;28;20702;-64
2021/04/24 02:00:33;;;;;;;6.07;5.47;;;;;;;12.76;57.00;101126.09;4975095;28;20429;-63
2021/04/24 02:03:02;;;;;;;9.23;5.47;;;;;;;12.83;56.39;101124.91;4973941;28;20043;-62
2021/04/24 02:05:29;;;;;;;4.63;4.20;;;;;;;12.71;57.75;101130.69;4975048;28;20544;-62
2021/04/24 02:08:01;;;;;;;9.27;5.38;;;;;;;12.71;57.84;101125.47;4978531;28;20042;-63
2021/04/24 02:10:29;;;;;;;6.75;5.50;;;;;;;12.78;57.25;101124.25;4986741;28;20142;-64
2021/04/24 02:13:09;;;;;;;6.63;5.22;;;;;;;12.72;57.75;101122.75;4974132;28;20085;-64
2021/04/24 02:15:35;;;;;;;7.03;4.63;;;;;;;12.68;57.31;101130.84;4976957;28;20049;-64
2021/04/24 02:18:02;;;;;;;6.65;5.00;;;;;;;12.61;57.49;101124.16;4993605;28;20155;-64
2021/04/24 02:20:29;;;;;;;5.20;4.28;;;;;;;12.62;57.12;101125.84;4992754;28;20043;-64
2021/04/24 02:22:56;;;;;;;6.32;5.72;;;;;;;12.72;56.78;101120.16;4994015;28;20050;-64
2021/04/24 02:25:22;;;;;;;5.88;4.85;;;;;;;12.69;57.16;101127.31;4991347;28;20056;-64
2021/04/24 02:27:49;;;;;;;7.70;4.75;;;;;;;12.69;57.13;101122.06;4994222;28;20054;-64
2021/04/24 02:30:18;;;;;;;5.55;5.00;;;;;;;12.73;57.01;101116.63;4992228;28;20054;-64
2021/04/24 02:32:45;;;;;;;5.75;5.25;;;;;;;12.68;57.00;101125.63;4994309;28;20065;-64
2021/04/24 02:35:15;;;;;;;11.57;5.65;;;;;;;12.70;57.32;101124.63;4992022;28;20478;-64
2021/04/24 02:37:41;;;;;;;5.40;4.32;;;;;;;12.70;57.16;101122.00;4992938;28;20069;-64
2021/04/24 02:40:15;;;;;;;9.55;6.38;;;;;;;12.58;57.46;101123.41;4992227;28;20125;-64
2021/04/24 02:42:42;;;;;;;9.23;5.60;;;;;;;12.45;57.77;101119.59;4992955;28;20460;-64
2021/04/24 02:45:10;;;;;;;8.32;5.35;;;;;;;12.41;57.83;101120.69;4991645;28;20574;-63
2021/04/24 02:47:37;;;;;;;8.32;7.15;;;;;;;12.32;58.44;101123.69;4992549;28;20569;-64
2021/04/24 02:50:06;;;;;;;8.30;6.97;;;;;;;12.44;58.05;101128.38;4986888;28;20053;-64
2021/04/24 02:52:33;;;;;;;6.90;5.90;;;;;;;12.46;57.98;101126.53;4973430;28;20045;-64
2021/04/24 02:55:00;;;;;;;11.00;6.63;;;;;;;12.32;58.43;101119.31;4977350;28;20049;-64
2021/04/24 02:57:27;;;;;;;7.65;6.50;;;;;;;12.24;58.31;101116.16;4992574;28;20034;-64
2021/04/24 02:59:53;;;;;;;7.57;6.72;;;;;;;12.24;58.51;101115.31;4988280;28;20042;-64
2021/04/24 03:02:20;;;;;;;8.43;6.82;;;;;;;12.11;58.32;101116.75;4973035;28;20039;-64
2021/04/24 03:04:47;;;;;;;7.97;6.28;;;;;;;12.21;57.99;101120.69;4973403;28;20162;-64
2021/04/24 03:07:13;;;;;;;10.32;7.22;;;;;;;12.24;57.81;101117.94;4972644;28;20126;-64
2021/04/24 03:09:40;;;;;;;8.18;6.68;;;;;;;12.12;58.40;101118.47;4987317;28;20050;-64
2021/04/24 03:12:07;;;;;;;8.45;7.38;;;;;;;12.12;57.98;101124.53;4991179;28;20125;-64
2021/04/24 03:14:35;;;;;;;9.18;6.75;;;;;;;12.12;57.37;101111.47;4991284;28;20330;-64
2021/04/24 03:17:01;;;;;;;8.45;6.88;;;;;;;12.18;57.73;101115.59;4991946;28;20042;-64
2021/04/24 03:19:28;;;;;;;11.63;6.03;;;;;;;12.18;57.50;101118.19;4993429;28;20074;-64
2021/04/24 03:21:55;;;;;;;8.43;7.05;;;;;;;12.05;58.68;101120.50;4982368;28;20047;-64
2021/04/24 03:24:21;;;;;;;7.13;6.35;;;;;;;12.05;58.49;101121.34;4971108;28;20153;-64
2021/04/24 03:26:47;;;;;;;8.02;6.75;;;;;;;11.99;57.39;101111.16;4983766;28;20104;-65
2021/04/24 03:29:14;;;;;;;8.50;6.60;;;;;;;11.91;57.89;101109.75;4992013;28;20406;-64
2021/04/24 03:31:40;;;;;;;7.75;6.82;;;;;;;11.93;58.50;101110.53;4990783;28;20129;-64
2021/04/24 03:34:07;;;;;;;10.15;6.57;;;;;;;12.04;57.76;101114.41;4990543;28;20459;-64
2021/04/24 03:36:33;;;;;;;9.40;7.13;;;;;;;12.07;57.89;101102.97;4991522;28;20101;-64
2021/04/24 03:38:59;;;;;;;7.38;6.25;;;;;;;11.95;58.66;101108.72;4978384;28;20042;-66
2021/04/24 03:41:26;;;;;;;8.32;7.53;;;;;;;11.96;58.26;101106.03;4987148;28;20046;-64
2021/04/24 03:43:52;;;;;;;6.90;6.20;;;;;;;12.02;57.65;101115.38;4987442;28;20046;-64
2021/04/24 03:46:19;;;;;;;9.32;7.38;;;;;;;12.09;57.25;101105.50;4992495;28;20448;-64
2021/04/24 03:48:45;;;;;;;12.45;6.70;;;;;;;12.02;57.58;101110.16;4989456;28;20603;-64
2021/04/24 03:51:12;;;;;;;7.22;6.53;;;;;;;12.06;57.56;101112.56;4992026;28;20398;-63
2021/04/24 03:53:38;;;;;;;11.68;7.68;;;;;;;11.89;58.25;101120.28;4978460;28;20556;-64
2021/04/24 03:56:05;;;;;;;9.95;7.53;;;;;;;11.79;58.74;101118.94;4972063;28;20046;-64
2021/04/24 03:58:32;;;;;;;9.07;7.85;;;;;;;11.72;58.81;101110.50;4982336;28;20564;-64
2021/04/24 04:00:58;;;;;;;12.63;8.27;;;;;;;11.79;58.59;101116.31;4991674;28;20465;-64
2021/04/24 04:03:24;;;;;;;9.55;7.82;;;;;;;11.77;57.98;101116.38;4989033;28;20077;-64
2021/04/24 04:05:51;;;;;;;8.75;7.93;;;;;;;11.74;58.21;101116.50;4991186;28;20046;-64
2021/04/24 04:08:17;;;;;;;8.32;7.47;;;;;;;11.81;58.15;101117.09;4990728;28;20043;-64
2021/04/24 04:10:49;;;;;;;9.60;8.60;;;;;;;11.87;57.47;101122.09;4991561;28;20046;-64
2021/04/24 04:13:15;;;;;;;11.15;8.88;;;;;;;11.89;57.75;101120.28;4988428;28;20473;-64
2021/04/24 04:15:42;;;;;;;11.02;8.95;;;;;;;11.81;58.12;101117.09;4971821;28;20093;-64
2021/04/24 04:18:17;;;;;;;10.77;9.65;;;;;;;11.74;57.79;101116.50;4972738;28;20690;-64
2021/04/24 04:20:46;;;;;;;11.25;9.50;;;;;;;11.79;57.63;101113.69;4991526;28;20558;-63
2021/04/24 04:23:21;;;;;;;11.82;8.88;;;;;;;11.85;57.41;101117.84;4990692;28;20409;-64
2021/04/24 04:25:49;;;;;;;9.25;7.72;;;;;;;11.91;57.41;101118.44;4991267;28;20073;-66
2021/04/24 04:28:16;;;;;;;9.05;7.78;;;;;;;11.90;57.48;101119.38;4990052;28;20161;-64
2021/04/24 04:30:42;;;;;;;9.15;8.25;;;;;;;11.71;58.56;101118.38;4971664;28;20109;-64
2021/04/24 04:33:10;;;;;;;9.50;8.52;;;;;;;11.68;58.44;101131.56;4971811;28;20047;-64
2021/04/24 04:35:38;;;;;;;9.35;8.35;;;;;;;11.74;57.99;101126.09;4990015;28;20038;-64
2021/04/24 04:38:05;;;;;;;8.88;7.97;;;;;;;11.71;58.73;101121.84;4991466;28;20512;-64
2021/04/24 04:40:32;;;;;;;11.40;8.27;;;;;;;11.74;58.17;101126.09;4991919;28;20133;-64
2021/04/24 04:42:59;;;;;;;10.00;9.02;;;;;;;11.84;58.21;101130.06;4991431;28;20528;-64
2021/04/24 04:45:25;;;;;;;8.98;7.93;;;;;;;11.92;57.34;101130.59;4974962;28;20042;-64
2021/04/24 04:47:52;;;;;;;9.98;8.98;;;;;;;11.99;56.87;101125.97;4984040;28;20382;-64
2021/04/24 04:50:21;;;;;;;10.57;9.07;;;;;;;12.26;56.29;101129.19;4994826;28;20408;-64
2021/04/24 04:52:48;;;;;;;13.70;9.27;;;;;;;12.29;56.25;101135.09;4982537;28;20138;-64
2021/04/24 04:55:15;;;;;;;11.82;9.60;;;;;;;12.37;56.17;101134.81;4975905;28;20050;-64
2021/04/24 04:57:41;;;;;;;10.63;9.52;;;;;;;12.15;55.91;101141.88;4984730;28;20046;-64
2021/04/24 05:00:11;;;;;;;15.57;10.25;;;;;;;12.31;55.12;101142.91;4987473;28;20046;-65
2021/04/24 05:02:38;;;;;;;13.77;11.10;;;;;;;12.29;55.24;101145.56;4975460;28;20524;-64
2021/04/24 05:05:06;;;;;;;13.75;11.45;;;;;;;12.57;54.82;101145.25;4981638;28;20648;-64
2021/04/24 05:07:33;;;;;;;16.10;11.95;;;;;;;12.73;54.78;101134.06;4994776;28;20093;-65
2021/04/24 05:10:19;;;;;;;14.30;11.52;;;;;;;12.95;54.15;101145.28;4993528;28;20409;-66
2021/04/24 05:12:46;;;;;;;12.98;11.68;;;;;;;13.05;54.11;101146.56;4994672;28;20145;-65
2021/04/24 05:15:14;;;;;;;12.48;10.98;;;;;;;13.11;53.83;101146.28;4986980;28;20099;-65
2021/04/24 05:17:40;;;;;;;16.13;11.70;;;;;;;13.49;53.41;101146.28;4979237;28;20105;-65
2021/04/24 05:20:08;;;;;;;15.45;13.15;;;;;;;13.50;52.49;101155.00;4993696;28;20117;-65
2021/04/24 05:22:34;;;;;;;15.95;11.13;;;;;;;13.71;52.49;101150.50;4994111;28;20062;-66
2021/04/24 05:25:01;;;;;;;15.43;12.65;;;;;;;13.89;52.29;101155.66;4992737;28;20441;-66
2021/04/24 05:27:27;;;;;;;17.17;12.73;;;;;;;13.98;52.00;101156.16;4993574;28;20042;-66
2021/04/24 05:29:54;;;;;;;19.25;12.60;;;;;;;14.11;51.24;101159.84;4991785;28;20151;-64
2021/04/24 05:32:20;;;;;;;14.13;12.60;;;;;;;14.70;50.33;101162.97;4990420;28;20106;-68
2021/04/24 05:34:47;;;;;;;21.33;13.45;;;;;;;14.54;50.30;101163.81;4992525;28;20058;-67
2021/04/24 05:37:15;;;;;;;16.38;12.10;;;;;;;15.01;49.06;101167.44;4994576;28;20088;-69
2021/04/24 05:39:42;;;;;;;15.57;12.82;;;;;;;15.35;48.14;101169.94;4988365;28;20043;-75
2021/04/24 05:42:12;;;;;;;18.83;14.02;;;;;;;15.09;49.11;101174.00;4984917;28;20121;-74
2021/04/24 05:44:40;;;;;;;16.25;12.75;;;;;;;15.69;47.90;101170.72;4993211;28;20077;-68
2021/04/24 05:47:06;;;;;;;12.70;11.38;;;;;;;16.14;46.26;101175.13;4987708;28;20121;-69
2021/04/24 05:49:33;;;;;;;17.05;13.20;;;;;;;16.67;44.66;101173.72;4993598;28;20085;-67
2021/04/24 05:52:00;;;;;;;11.85;10.65;;;;;;;17.14;43.81;101175.22;4981109;28;20127;-68
2021/04/24 05:54:27;;;;;;;17.00;13.65;;;;;;;17.43;43.42;101175.19;4989636;28;20038;-69
2021/04/24 05:56:53;;;;;;;18.73;11.70;;;;;;;17.63;42.72;101169.47;4988777;28;20113;-66
2021/04/24 05:59:20;;;;;;;15.88;12.13;;;;;;;17.90;42.56;101173.94;4992191;28;20077;-68
2021/04/24 06:01:46;;;;;;;15.32;13.45;;;;;;;17.85;42.04;101176.84;4992988;28;20101;-72
2021/04/24 06:04:13;;;;;;;15.25;12.30;;;;;;;17.75;42.53;101184.53;4994938;28;20409;-77
2021/04/24 06:06:40;;;;;;;15.55;13.65;;;;;;;18.07;41.63;101186.84;4993211;28;20046;-74
2021/04/24 06:09:07;;;;;;;14.73;12.55;;;;;;;18.39;41.40;101181.19;4989466;28;20082;-69
2021/04/24 06:11:34;;;;;;;16.98;15.25;;;;;;;18.67;40.81;101183.63;4985362;28;20038;-70
2021/04/24 06:14:02;;;;;;;19.10;15.88;;;;;;;18.80;40.74;101184.50;4986177;28;20129;-69
2021/04/24 06:16:30;;;;;;;18.90;16.00;;;;;;;18.96;39.79;101176.38;4994761;28;20031;-70
2021/04/24 06:18:56;;;;;;;17.35;14.57;;;;;;;19.61;39.18;101180.53;4994433;28;20038;-69
2021/04/24 06:21:23;;;;;;;14.57;13.07;;;;;;;19.48;40.15;101179.69;4980878;28;20066;-69
2021/04/24 06:23:50;;;;;;;15.88;14.15;;;;;;;18.69;41.98;101181.75;4983304;28;20132;-68
2021/04/24 06:26:18;;;;;;;16.85;14.50;;;;;;;19.78;40.16;101179.31;4984783;28;20034;-68
2021/04/24 06:28:44;;;;;;;18.05;15.70;;;;;;;20.42;38.78;101180.59;4979829;28;20046;-67
2021/04/24 06:31:11;;;;;;;18.77;16.98;;;;;;;20.68;37.97;101180.44;4986921;28;20053;-71
2021/04/24 06:33:37;;;;;;;16.92;15.13;;;;;;;21.09;37.39;101181.63;4994037;28;20074;-75
2021/04/24 06:36:05;;;;;;;19.35;17.15;;;;;;;20.85;37.68;101177.31;4994321;28;20046;-74
2021/04/24 06:38:31;;;;;;;16.40;14.90;;;;;;;21.43;37.40;101182.47;4994053;28;20043;-73
2021/04/24 06:40:58;;;;;;;18.63;14.20;;;;;;;21.34;37.78;101183.19;4994473;28;20054;-77
2021/04/24 06:43:24;;;;;;;15.18;13.68;;;;;;;21.92;36.47;101173.97;4993668;28;20153;-74
2021/04/24 06:45:50;;;;;;;27.30;14.75;;;;;;;21.89;36.40;101176.91;4994244;28;20046;-73
2021/04/24 06:48:17;;;;;;;13.98;12.50;;;;;;;22.63;34.32;101181.31;4994591;28;20066;-73
2021/04/24 06:50:43;;;;;;;18.83;13.70;;;;;;;21.45;37.27;101185.81;4993639;28;20042;-73
2021/04/24 06:53:10;;;;;;;15.43;13.13;;;;;;;22.02;36.92;101178.53;4994100;28;20042;-75
2021/04/24 06:55:36;;;;;;;14.38;12.98;;;;;;;21.56;37.21;101193.75;4990848;28;20042;-71
2021/04/24 06:58:03;;;;;;;18.73;15.02;;;;;;;21.54;36.45;101184.25;4978466;28;20125;-71
2021/04/24 07:00:30;;;;;;;19.70;14.77;;;;;;;22.57;35.71;101179.19;4983431;28;20370;-72
2021/04/24 07:02:56;;;;;;;17.48;13.05;;;;;;;21.68;36.37;101176.84;4993274;28;20066;-69
2021/04/24 07:05:23;;;;;;;15.65;13.27;;;;;;;22.77;35.61;101182.78;4992818;28;20042;-69
2021/04/24 07:07:49;;;;;;;16.55;14.63;;;;;;;23.43;33.76;101178.69;4993386;28;20485;-69
2021/04/24 07:10:16;;;;;;;18.13;15.07;;;;;;;23.58;32.98;101172.97;4993045;28;20038;-77
2021/04/24 07:12:45;;;;;;;17.92;16.13;;;;;;;23.14;33.20;101168.00;4993117;28;20513;-67
2021/04/24 07:15:13;;;;;;;15.52;13.80;;;;;;;23.53;32.50;101166.25;4985536;28;20055;-69
2021/04/24 07:17:40;;;;;;;17.70;16.05;;;;;;;23.92;31.55;101168.13;4985315;28;20467;-76
2021/04/24 07:20:08;;;;;;;16.70;14.95;;;;;;;24.51;30.57;101169.75;4987103;28;20572;-76
2021/04/24 07:22:36;;;;;;;17.08;15.27;;;;;;;22.92;32.73;101169.03;4980947;28;20053;-77
2021/04/24 07:25:03;;;;;;;18.70;14.20;;;;;;;23.56;32.21;101167.81;4982529;28;20043;-68
2021/04/24 07:27:30;;;;;;;18.33;13.75;;;;;;;23.56;31.78;101162.47;4974983;28;20146;-67
2021/04/24 07:29:56;;;;;;;16.02;14.25;;;;;;;23.79;31.64;101169.25;4976147;28;20081;-67
2021/04/24 07:32:23;;;;;;;15.23;13.75;;;;;;;23.89;31.53;101169.25;4980628;28;20043;-65
2021/04/24 07:34:49;;;;;;;14.43;13.02;;;;;;;23.09;32.36;101174.69;4980020;28;20053;-65
2021/04/24 07:37:16;;;;;;;13.63;12.20;;;;;;;23.81;31.01;101166.47;4979282;28;20042;-67
2021/04/24 07:39:42;;;;;;;14.75;12.93;;;;;;;24.67;30.03;101163.81;4979765;28;20050;-67
2021/04/24 07:42:09;;;;;;;14.43;13.00;;;;;;;25.63;27.67;101170.47;4980456;28;20560;-66
2021/04/24 07:44:37;;;;;;;12.52;11.32;;;;;;;25.43;28.45;101172.44;4979178;28;20113;-70
2021/04/24 07:47:08;;;;;;;15.80;10.82;;;;;;;24.94;28.42;101177.19;4976146;28;20066;-74
2021/04/24 07:49:38;;;;;;;9.68;8.77;;;;;;;25.42;27.74;101175.25;4980449;28;20437;-68
2021/04/24 07:52:08;;;;;;;14.73;8.82;;;;;;;25.29;27.11;101183.63;4980532;28;20485;-67
2021/04/24 07:54:40;;;;;;;10.90;10.00;;;;;;;26.44;26.30;101178.38;4980618;28;20045;-66
2021/04/24 07:57:08;;;;;;;10.82;9.93;;;;;;;26.24;26.36;101174.19;4978380;28;20070;-69
2021/04/24 07:59:34;;;;;;;13.05;11.95;;;;;;;26.26;27.40;101174.84;4980857;28;20039;-68
2021/04/24 08:02:01;;;;;;;11.88;10.45;;;;;;;27.36;25.96;101172.28;4993283;28;20145;-68
2021/04/24 08:04:27;;;;;;;9.20;8.30;;;;;;;26.78;25.12;101174.88;4992591;28;20049;-68
2021/04/24 08:06:54;;;;;;;8.38;7.68;;;;;;;26.20;26.35;101170.97;4992573;28;20049;-68
2021/04/24 08:09:20;;;;;;;8.45;7.63;;;;;;;26.02;26.72;101179.03;4992997;28;20093;-68
2021/04/24 08:11:46;;;;;;;8.15;7.35;;;;;;;25.74;27.10;101175.63;4982558;28;20047;-69
2021/04/24 08:14:13;;;;;;;8.18;6.40;;;;;;;25.89;26.58;101175.06;4979216;28;20129;-71
2021/04/24 08:16:39;;;;;;;6.55;6.03;;;;;;;25.77;27.11;101174.47;4988931;28;20042;-70
2021/04/24 08:19:06;;;;;;;9.70;7.28;;;;;;;25.11;28.83;101188.09;4993272;28;20089;-70
2021/04/24 08:21:33;;;;;;;7.18;6.55;;;;;;;25.33;27.64;101177.00;4992409;28;20519;-69
2021/04/24 08:24:01;;;;;;;8.32;7.63;;;;;;;26.36;27.41;101179.09;4997155;28;20070;-69
2021/04/24 08:26:29;;;;;;;9.82;8.30;;;;;;;25.55;28.32;101186.41;4996246;28;20047;-68
2021/04/24 08:28:56;;;;;;;8.27;7.00;;;;;;;26.32;27.57;101179.59;4995830;28;20125;-73
2021/04/24 08:31:23;;;;;;;8.45;7.57;;;;;;;26.03;28.29;101175.34;4996286;28;20052;-69
2021/04/24 08:33:50;;;;;;;8.85;7.72;;;;;;;25.64;28.94;101182.00;4996995;28;20042;-69
2021/04/24 08:36:17;;;;;;;12.20;7.97;;;;;;;25.85;28.66;101174.56;4996195;28;20405;-69
2021/04/24 08:38:44;;;;;;;8.70;7.50;;;;;;;26.60;27.73;101170.44;4996493;28;20137;-75
2021/04/24 08:41:10;;;;;;;10.23;7.45;;;;;;;27.32;26.48;101162.06;4993280;28;20069;-73
2021/04/24 08:43:38;;;;;;;20.80;10.07;;;;;;;25.82;27.04;101164.16;4995774;28;20042;-76
2021/04/24 08:46:08;;;;;;;9.57;8.65;;;;;;;26.06;27.68;101159.03;4996406;28;20141;-80
2021/04/24 08:48:35;;;;;;;10.35;9.20;;;;;;;25.75;28.60;101168.44;4992435;28;20426;-75
2021/04/24 08:51:02;;;;;;;10.68;9.13;;;;;;;26.11;26.29;101156.72;4988936;28;20049;-74
2021/04/24 08:53:29;;;;;;;11.35;10.25;;;;;;;25.98;27.67;101161.63;4996117;28;20563;-75
2021/04/24 08:55:55;;;;;;;10.68;9.55;;;;;;;25.82;26.91;101164.16;4996606;28;20042;-75
2021/04/24 08:58:21;;;;;;;10.02;9.20;;;;;;;25.47;26.76;101165.81;4995982;28;20117;-75
2021/04/24 09:00:51;;;;;;;10.00;9.00;;;;;;;25.34;27.96;101168.00;4989864;28;20054;-74
2021/04/24 09:03:21;;;;;;;11.82;10.73;;;;;;;24.87;28.24;101172.56;4990018;28;20109;-71
2021/04/24 09:05:52;;;;;;;13.32;12.02;;;;;;;24.81;28.29;101163.31;4995959;28;20053;-70
2021/04/24 09:08:24;;;;;;;13.10;11.70;;;;;;;25.25;27.88;101159.06;4995737;28;20516;-69
2021/04/24 09:10:56;;;;;;;12.68;10.63;;;;;;;24.94;27.79;101160.34;4993537;28;20054;-71
2021/04/24 09:13:25;;;;;;;11.73;10.57;;;;;;;25.46;26.83;101148.13;4996603;28;20888;-72
2021/04/24 09:15:53;;;;;;;11.80;10.50;;;;;;;25.13;27.94;101156.75;4992010;28;20117;-71
2021/04/24 09:18:21;;;;;;;11.60;10.30;;;;;;;25.67;27.51;101153.13;4994806;28;20069;-69
2021/04/24 09:20:51;;;;;;;15.77;11.50;;;;;;;25.46;26.86;101161.47;4982068;28;20574;-68
2021/04/24 09:23:23;;;;;;;11.20;10.13;;;;;;;25.29;27.64;101154.25;4979903;28;20548;-67
2021/04/24 09:25:57;;;;;;;13.45;10.93;;;;;;;25.24;25.93;101152.03;4980057;28;20046;-68
2021/04/24 09:28:38;;;;;;;10.80;8.75;;;;;;;24.60;25.18;101152.03;4979153;28;20062;-69
2021/04/24 09:31:13;;;;;;;9.13;8.18;;;;;;;24.56;26.45;101147.00;4984579;28;20452;-67
2021/04/24 09:33:41;;;;;;;11.13;9.70;;;;;;;24.17;27.70;101145.38;4994112;28;20050;-69
2021/04/24 09:36:09;;;;;;;10.73;9.32;;;;;;;23.81;28.56;101139.84;4995020;28;20460;-69
2021/04/24 09:38:40;;;;;;;9.45;6.90;;;;;;;23.34;27.39;101142.28;4995313;28;20121;-69
2021/04/24 09:41:20;;;;;;;7.55;6.80;;;;;;;22.86;27.27;101144.78;4994542;28;20066;-69
2021/04/24 09:44:03;;;;;;;7.85;7.15;;;;;;;23.27;27.61;101141.13;4994980;28;20046;-68
2021/04/24 09:46:34;;;;;;;7.63;6.93;;;;;;;22.76;27.67;101128.78;4994082;28;20433;-66
2021/04/24 09:49:11;;;;;;;11.32;6.95;;;;;;;22.92;26.61;101131.81;4994986;28;20042;-69
2021/04/24 09:51:46;;;;;;;7.78;4.85;;;;;;;22.70;26.28;101132.00;4988987;28;20041;-68
2021/04/24 09:54:13;;;;;;;;;;;;;;;22.89;26.74;101125.94;4988739;28;20129;-72
2021/04/24 09:56:39;;;;;;;6.95;6.30;;;;;;;23.04;28.28;101116.59;4985236;28;19980;-70
2021/04/24 09:59:09;;;;;;;9.98;6.03;;;;;;;22.81;28.99;101123.91;4988020;28;20141;-73
2021/04/24 10:01:41;;;;;;;6.70;5.07;;;;;;;22.66;27.25;101125.25;4995391;28;20073;-68
2021/04/24 10:04:12;;;;;;;6.35;4.90;;;;;;;22.47;25.92;101118.84;4994161;28;20047;-69
2021/04/24 10:06:41;;;;;;;4.63;3.67;;;;;;;22.34;26.86;101115.59;4995282;28;20104;-72
2021/04/24 10:09:26;;;;;;;4.65;3.97;;;;;;;22.23;27.33;101116.50;4994946;28;20323;-72
2021/04/24 10:12:12;;;;;;;;;;;;;;;22.11;27.16;101104.28;4993925;28;20043;-72
2021/04/24 10:14:44;;;;;;;7.00;3.90;;;;;;;22.45;27.21;101112.84;4993016;28;20452;-70
2021/04/24 10:17:12;;;;;;;7.60;4.70;;;;;;;22.30;27.73;101113.31;4994752;28;20046;-66
2021/04/24 10:19:40;;;;;;;8.15;3.83;;;;;;;22.25;28.32;101104.91;4991936;28;20069;-67
2021/04/24 10:22:11;;;;;;;6.28;4.60;;;;;;;22.23;27.32;101099.75;4994380;28;20490;-67
2021/04/24 10:24:38;;;;;;;7.68;4.55;;;;;;;21.93;27.03;101095.19;4993291;28;20097;-68
2021/04/24 10:27:06;;;;;;;5.05;4.50;;;;;;;21.77;26.99;101084.16;4979958;28;20047;-68
2021/04/24 10:29:33;;;;;;;6.00;3.97;;;;;;;21.74;26.30;101090.59;4994188;28;20041;-68
2021/04/24 10:32:00;;;;;;;5.40;3.90;;;;;;;21.63;25.70;101085.34;4984915;28;20066;-67
2021/04/24 10:34:26;;;;;;;4.30;3.90;;;;;;;21.76;28.27;101074.53;4997048;28;20042;-69
2021/04/24 10:36:53;;;;;;;9.13;4.85;;;;;;;21.60;28.25;101077.63;4993964;28;20093;-68
2021/04/24 10:39:31;;;;;;;4.50;4.00;;;;;;;21.74;28.41;101068.53;4994482;28;20038;-68
2021/04/24 10:42:02;;;;;;;9.02;4.85;;;;;;;21.57;27.76;101069.91;4995621;28;20066;-67
2021/04/24 10:44:45;;;;;;;9.30;4.57;;;;;;;21.80;27.92;101068.00;4993993;28;20069;-68
2021/04/24 10:47:12;;;;;;;7.53;3.35;;;;;;;21.79;28.11;101077.78;4993323;28;20425;-69
2021/04/24 10:49:56;;;;;;;4.45;3.53;;;;;;;21.65;27.26;101060.34;4994015;28;20459;-69
2021/04/24 10:52:26;;;;;;;5.10;3.90;;;;;;;21.69;28.45;101060.94;4993322;28;20113;-68
2021/04/24 10:55:13;;;;;;;6.88;3.42;;;;;;;21.85;28.12;101049.88;4993852;28;20069;-69
2021/04/24 10:57:46;;;;;;;5.40;3.40;;;;;;;21.86;28.42;101052.38;4994048;28;20050;-70
2021/04/24 11:00:18;;;;;;;5.35;3.88;;;;;;;21.74;27.92;101053.44;4987569;28;20133;-70
2021/04/24 11:02:56;;;;;;;5.90;3.28;;;;;;;21.73;26.80;101049.06;4993814;28;20061;-70
2021/04/24 11:05:33;;;;;;;4.20;3.60;;;;;;;21.67;26.68;101047.78;4993384;28;20485;-69
2021/04/24 11:08:23;;;;;;;6.47;4.07;;;;;;;21.85;25.60;101044.56;4989788;28;20093;-70
2021/04/24 11:10:58;;;;;;;4.28;3.78;;;;;;;21.87;25.97;101046.09;4978616;28;20101;-68
2021/04/24 11:13:26;;;;;;;;;;;;;;;21.66;26.91;101051.41;4987213;28;20153;-69
2021/04/24 11:15:53;;;;;;;6.60;4.63;;;;;;;21.74;26.22;101040.16;4988027;28;19957;-72
2021/04/24 11:18:22;;;;;;;4.90;3.92;;;;;;;21.75;27.07;101039.19;4977489;28;20098;-69
2021/04/24 11:20:48;;;;;;;4.40;3.95;;;;;;;21.88;27.64;101033.66;4988019;28;20051;-73
2021/04/24 11:23:33;;;;;;;9.18;4.80;;;;;;;21.78;28.56;101022.16;4992174;28;20051;-76
2021/04/24 11:26:01;;;;;;;6.82;4.65;;;;;;;21.93;28.27;101015.53;4990284;28;20185;-71